createdAt,value
2018-12-23T00:00:03.033Z,92.99
2018-12-23T00:01:03.154Z,92.27
2018-12-23T00:02:03.012Z,92.38
2018-12-23T00:03:02.998Z,92.63
2018-12-23T00:04:02.990Z,92.89
2018-12-23T00:05:11.302Z,92.99
2018-12-23T00:06:04.027Z,93.24
2018-12-23T00:07:02.956Z,93.14
2018-12-23T00:08:02.949Z,92.63
2018-12-23T00:09:02.936Z,92.52
2018-12-23T00:10:02.926Z,91.75
2018-12-23T00:11:02.915Z,92.00
2018-12-23T00:12:02.962Z,91.90
2018-12-23T00:13:02.889Z,91.80
2018-12-23T00:14:02.885Z,91.80
2018-12-23T00:15:02.873Z,91.44
2018-12-23T00:16:02.864Z,90.52
2018-12-23T00:17:02.851Z,91.13
2018-12-23T00:18:02.919Z,91.13
2018-12-23T00:19:02.839Z,91.13
2018-12-23T00:20:02.823Z,91.13
2018-12-23T00:21:02.808Z,91.03
2018-12-23T00:22:02.792Z,90.83
2018-12-23T00:23:02.789Z,90.58
2018-12-23T00:24:02.832Z,90.47
2018-12-23T00:25:02.764Z,90.16
2018-12-23T00:26:02.749Z,90.37
2018-12-23T00:27:02.739Z,90.16
2018-12-23T00:28:02.731Z,90.37
2018-12-23T00:29:02.717Z,89.95
2018-12-23T00:30:02.807Z,89.65
2018-12-23T00:31:02.693Z,89.03
2018-12-23T00:32:02.689Z,89.23
2018-12-23T00:33:02.680Z,89.03
2018-12-23T00:34:02.660Z,88.92
2018-12-23T00:35:02.650Z,89.03
2018-12-23T00:36:02.697Z,88.89
2018-12-23T00:37:02.634Z,88.61
2018-12-23T00:38:02.618Z,88.71
2018-12-23T00:39:02.607Z,88.71
2018-12-23T00:40:02.597Z,88.71
2018-12-23T00:41:02.585Z,88.61
2018-12-23T00:42:02.627Z,88.61
2018-12-23T00:43:02.562Z,88.61
2018-12-23T00:44:02.556Z,88.31
2018-12-23T00:45:02.540Z,88.41
2018-12-23T00:46:02.537Z,88.51
2018-12-23T00:47:02.552Z,88.51
2018-12-23T00:48:02.599Z,88.20
2018-12-23T00:49:02.500Z,87.99
2018-12-23T00:50:02.488Z,88.41
2018-12-23T00:51:02.481Z,88.31
2018-12-23T00:52:02.467Z,88.41
2018-12-23T00:53:02.455Z,88.20
2018-12-23T00:54:02.515Z,88.26
2018-12-23T00:55:02.441Z,88.06
2018-12-23T00:56:02.422Z,88.41
2018-12-23T00:57:02.418Z,88.31
2018-12-23T00:58:02.421Z,88.41
2018-12-23T00:59:02.388Z,88.16
2018-12-23T01:00:02.464Z,87.99
2018-12-23T01:01:02.368Z,88.31
2018-12-23T01:02:02.356Z,88.20
2018-12-23T01:03:02.346Z,88.10
2018-12-23T01:04:02.335Z,88.10
2018-12-23T01:05:02.391Z,88.31
2018-12-23T01:06:02.377Z,88.10
2018-12-23T01:07:02.300Z,88.20
2018-12-23T01:08:02.293Z,88.10
2018-12-23T01:09:02.291Z,88.10
2018-12-23T01:10:02.266Z,88.20
2018-12-23T01:11:02.260Z,88.10
2018-12-23T01:12:02.360Z,88.20
2018-12-23T01:13:02.252Z,87.79
2018-12-23T01:14:02.223Z,88.47
2018-12-23T01:15:02.221Z,88.20
2018-12-23T01:16:02.201Z,88.10
2018-12-23T01:17:02.194Z,88.41
2018-12-23T01:18:02.236Z,88.41
2018-12-23T01:19:02.169Z,88.37
2018-12-23T01:20:02.162Z,88.47
2018-12-23T01:21:02.148Z,88.26
2018-12-23T01:22:02.170Z,87.54
2018-12-23T01:23:02.124Z,88.20
2018-12-23T01:24:02.190Z,88.10
2018-12-23T01:25:02.102Z,88.10
2018-12-23T01:26:02.092Z,88.31
2018-12-23T01:27:02.081Z,88.10
2018-12-23T01:28:02.070Z,88.41
2018-12-23T01:29:02.102Z,88.20
2018-12-23T01:30:02.117Z,88.41
2018-12-23T01:31:02.750Z,88.10
2018-12-23T01:32:02.029Z,88.20
2018-12-23T01:33:02.015Z,88.10
2018-12-23T01:34:02.012Z,87.48
2018-12-23T01:35:01.994Z,87.79
2018-12-23T01:36:02.049Z,88.51
2018-12-23T01:37:01.972Z,88.20
2018-12-23T01:38:01.964Z,88.10
2018-12-23T01:39:01.949Z,88.31
2018-12-23T01:40:01.942Z,88.20
2018-12-23T01:41:01.937Z,88.20
2018-12-23T01:42:01.986Z,88.82
2018-12-23T01:43:01.908Z,89.07
2018-12-23T01:44:01.896Z,89.07
2018-12-23T01:45:01.888Z,89.17
2018-12-23T01:46:01.875Z,89.48
2018-12-23T01:47:01.863Z,90.04
2018-12-23T01:48:01.909Z,89.83
2018-12-23T01:49:01.842Z,90.25
2018-12-23T01:50:01.839Z,90.45
2018-12-23T01:51:01.821Z,90.56
2018-12-23T01:52:01.815Z,90.56
2018-12-23T01:53:01.806Z,90.35
2018-12-23T01:54:01.857Z,90.97
2018-12-23T01:55:01.776Z,91.28
2018-12-23T01:56:01.764Z,91.22
2018-12-23T01:57:01.763Z,91.11
2018-12-23T01:58:01.742Z,91.42
2018-12-23T01:59:01.734Z,91.63
2018-12-23T02:00:01.829Z,91.74
2018-12-23T02:01:01.716Z,91.74
2018-12-23T02:02:01.709Z,91.42
2018-12-23T02:03:01.700Z,91.17
2018-12-23T02:04:01.693Z,91.49
2018-12-23T02:05:01.671Z,91.28
2018-12-23T02:06:01.737Z,91.59
2018-12-23T02:07:01.643Z,91.42
2018-12-23T02:08:02.267Z,91.49
2018-12-23T02:09:02.143Z,91.28
2018-12-23T02:10:01.612Z,90.97
2018-12-23T02:11:01.624Z,91.07
2018-12-23T02:12:01.662Z,90.77
2018-12-23T02:13:01.585Z,90.87
2018-12-23T02:14:01.573Z,90.77
2018-12-23T02:15:01.561Z,91.17
2018-12-23T02:16:01.546Z,90.97
2018-12-23T02:17:01.563Z,90.97
2018-12-23T02:18:01.582Z,91.07
2018-12-23T02:19:01.519Z,90.41
2018-12-23T02:20:01.590Z,90.25
2018-12-23T02:21:01.490Z,90.87
2018-12-23T02:22:01.480Z,90.97
2018-12-23T02:23:01.470Z,91.24
2018-12-23T02:24:01.508Z,91.13
2018-12-23T02:25:01.449Z,91.07
2018-12-23T02:26:01.435Z,90.56
2018-12-23T02:27:01.425Z,90.31
2018-12-23T02:28:01.446Z,90.41
2018-12-23T02:29:01.409Z,90.62
2018-12-23T02:30:01.870Z,90.66
2018-12-23T02:31:01.383Z,90.56
2018-12-23T02:32:01.370Z,90.97
2018-12-23T02:33:01.363Z,90.97
2018-12-23T02:34:01.351Z,90.93
2018-12-23T02:35:01.357Z,91.03
2018-12-23T02:36:01.396Z,91.17
2018-12-23T02:37:01.321Z,91.17
2018-12-23T02:38:01.307Z,91.17
2018-12-23T02:39:01.314Z,91.13
2018-12-23T02:40:01.300Z,91.34
2018-12-23T02:41:01.276Z,91.44
2018-12-23T02:42:01.335Z,91.13
2018-12-23T02:43:01.281Z,91.59
2018-12-23T02:44:01.241Z,91.69
2018-12-23T02:45:01.246Z,91.75
2018-12-23T02:46:01.222Z,91.59
2018-12-23T02:47:01.230Z,91.80
2018-12-23T02:48:01.264Z,91.65
2018-12-23T02:49:01.187Z,91.86
2018-12-23T02:50:01.177Z,91.86
2018-12-23T02:51:01.162Z,91.75
2018-12-23T02:52:01.158Z,91.65
2018-12-23T02:53:01.160Z,91.55
2018-12-23T02:54:01.202Z,91.86
2018-12-23T02:55:01.136Z,91.75
2018-12-23T02:56:01.110Z,92.00
2018-12-23T02:57:01.099Z,91.44
2018-12-23T02:58:01.099Z,92.17
2018-12-23T02:59:01.094Z,92.52
2018-12-23T03:00:01.192Z,92.27
2018-12-23T03:01:01.074Z,92.32
2018-12-23T03:02:01.078Z,92.27
2018-12-23T03:03:01.047Z,92.17
2018-12-23T03:04:01.021Z,92.32
2018-12-23T03:05:01.013Z,92.11
2018-12-23T03:06:05.905Z,92.38
2018-12-23T03:07:01.997Z,92.27
2018-12-23T03:08:00.981Z,92.17
2018-12-23T03:09:00.969Z,92.21
2018-12-23T03:10:00.974Z,92.17
2018-12-23T03:11:00.947Z,92.32
2018-12-23T03:12:00.995Z,92.27
2018-12-23T03:13:00.924Z,92.27
2018-12-23T03:14:00.919Z,92.42
2018-12-23T03:15:00.905Z,92.42
2018-12-23T03:16:00.908Z,92.52
2018-12-23T03:17:01.833Z,92.42
2018-12-23T03:18:00.942Z,93.14
2018-12-23T03:19:00.865Z,93.41
2018-12-23T03:20:00.851Z,93.51
2018-12-23T03:21:00.845Z,93.35
2018-12-23T03:22:00.825Z,93.35
2018-12-23T03:23:00.819Z,93.35
2018-12-23T03:24:00.892Z,93.14
2018-12-23T03:25:00.797Z,93.72
2018-12-23T03:26:00.802Z,93.62
2018-12-23T03:27:00.776Z,92.93
2018-12-23T03:28:00.761Z,93.45
2018-12-23T03:29:00.751Z,92.89
2018-12-23T03:30:00.840Z,93.35
2018-12-23T03:31:00.775Z,93.66
2018-12-23T03:32:00.733Z,93.55
2018-12-23T03:33:00.720Z,93.45
2018-12-23T03:34:00.711Z,93.82
2018-12-23T03:35:00.689Z,93.93
2018-12-23T03:36:00.754Z,93.41
2018-12-23T03:37:00.663Z,93.51
2018-12-23T03:38:00.654Z,93.66
2018-12-23T03:39:00.654Z,93.35
2018-12-23T03:40:00.633Z,93.30
2018-12-23T03:41:00.620Z,93.10
2018-12-23T03:42:00.673Z,93.20
2018-12-23T03:43:00.599Z,92.89
2018-12-23T03:44:00.589Z,92.99
2018-12-23T03:45:00.579Z,93.10
2018-12-23T03:46:00.575Z,92.99
2018-12-23T03:47:00.565Z,93.20
2018-12-23T03:48:00.607Z,93.10
2018-12-23T03:49:00.559Z,93.30
2018-12-23T03:50:00.525Z,92.99
2018-12-23T03:51:00.542Z,93.10
2018-12-23T03:52:00.501Z,93.10
2018-12-23T03:53:00.503Z,92.99
2018-12-23T03:54:00.539Z,93.20
2018-12-23T03:55:00.466Z,93.41
2018-12-23T03:56:00.456Z,93.20
2018-12-23T03:57:00.449Z,93.20
2018-12-23T03:58:00.444Z,93.20
2018-12-23T03:59:00.427Z,92.89
2018-12-23T04:00:00.513Z,93.10
2018-12-23T04:01:00.401Z,93.41
2018-12-23T04:02:00.407Z,93.30
2018-12-23T04:03:00.378Z,93.20
2018-12-23T04:04:00.373Z,93.10
2018-12-23T04:05:00.359Z,92.99
2018-12-23T04:06:00.415Z,92.99
2018-12-23T04:07:00.335Z,92.99
2018-12-23T04:08:28.262Z,93.20
2018-12-23T04:09:00.329Z,93.10
2018-12-23T04:10:00.331Z,93.20
2018-12-23T04:11:00.468Z,93.41
2018-12-23T04:12:00.370Z,93.10
2018-12-23T04:13:00.281Z,93.72
2018-12-23T04:14:00.259Z,93.14
2018-12-23T04:15:00.262Z,93.35
2018-12-23T04:16:00.239Z,93.51
2018-12-23T04:17:00.233Z,93.62
2018-12-23T04:18:00.310Z,92.89
2018-12-23T04:19:00.208Z,92.99
2018-12-23T04:20:00.282Z,93.30
2018-12-23T04:21:00.187Z,93.30
2018-12-23T04:22:00.179Z,93.51
2018-12-23T04:23:00.168Z,93.62
2018-12-23T04:24:00.216Z,93.30
2018-12-23T04:25:00.215Z,93.30
2018-12-23T04:26:00.129Z,93.10
2018-12-23T04:27:00.119Z,92.99
2018-12-23T04:28:00.203Z,93.41
2018-12-23T04:29:00.094Z,93.20
2018-12-23T04:30:00.361Z,93.41
2018-12-23T04:31:00.075Z,93.30
2018-12-23T04:32:00.065Z,93.20
2018-12-23T04:33:00.066Z,92.99
2018-12-23T04:34:00.044Z,93.30
2018-12-23T04:35:00.030Z,93.30
2018-12-23T04:36:00.101Z,93.72
2018-12-23T04:37:00.019Z,93.62
2018-12-23T04:38:00.020Z,93.37
2018-12-23T04:38:59.988Z,93.20
2018-12-23T04:40:00.007Z,92.99
2018-12-23T04:40:59.966Z,93.05
2018-12-23T04:42:00.052Z,93.16
2018-12-23T04:43:00.046Z,93.41
2018-12-23T04:43:59.935Z,93.05
2018-12-23T04:44:59.925Z,93.10
2018-12-23T04:45:59.914Z,93.10
2018-12-23T04:46:59.904Z,93.20
2018-12-23T04:47:59.980Z,93.16
2018-12-23T04:49:00.138Z,93.30
2018-12-23T04:49:59.867Z,93.72
2018-12-23T04:50:59.886Z,93.51
2018-12-23T04:51:59.843Z,93.72
2018-12-23T04:52:59.838Z,93.72
2018-12-23T04:53:59.915Z,94.19
2018-12-23T04:54:59.815Z,94.29
2018-12-23T04:55:59.817Z,94.23
2018-12-23T04:56:59.827Z,94.23
2018-12-23T04:57:59.787Z,94.81
2018-12-23T04:58:59.779Z,94.85
2018-12-23T04:59:59.869Z,94.92
2018-12-23T05:00:59.768Z,95.17
2018-12-23T05:01:59.742Z,94.85
2018-12-23T05:02:59.764Z,94.85
2018-12-23T05:03:59.721Z,94.54
2018-12-23T05:04:59.705Z,94.85
2018-12-23T05:05:59.837Z,95.06
2018-12-23T05:06:59.682Z,95.27
2018-12-23T05:07:59.671Z,95.57
2018-12-23T05:08:59.659Z,95.48
2018-12-23T05:09:59.649Z,94.85
2018-12-23T05:10:59.664Z,95.37
2018-12-23T05:11:59.696Z,95.02
2018-12-23T05:12:59.620Z,95.27
2018-12-23T05:13:59.626Z,95.17
2018-12-23T05:14:59.595Z,95.06
2018-12-23T05:15:59.597Z,95.27
2018-12-23T05:16:59.573Z,94.92
2018-12-23T05:17:59.650Z,95.02
2018-12-23T05:18:59.555Z,95.32
2018-12-23T05:19:59.541Z,95.17
2018-12-23T05:20:59.529Z,95.12
2018-12-23T05:21:59.518Z,95.43
2018-12-23T05:22:59.518Z,95.02
2018-12-23T05:23:59.561Z,94.92
2018-12-23T05:24:59.491Z,96.36
2018-12-23T05:25:59.498Z,95.32
2018-12-23T05:26:59.464Z,95.84
2018-12-23T05:27:59.455Z,95.95
2018-12-23T05:28:59.445Z,95.12
2018-12-23T05:29:59.499Z,95.74
2018-12-23T05:30:59.432Z,95.64
2018-12-23T05:31:59.414Z,95.64
2018-12-23T05:32:59.403Z,95.74
2018-12-23T05:33:59.391Z,95.95
2018-12-23T05:34:59.380Z,95.64
2018-12-23T05:35:59.442Z,95.53
2018-12-23T05:36:59.366Z,95.53
2018-12-23T05:37:59.345Z,95.53
2018-12-23T05:38:59.333Z,96.36
2018-12-23T05:39:59.322Z,95.53
2018-12-23T05:40:59.311Z,95.43
2018-12-23T05:41:59.454Z,94.92
2018-12-23T05:42:59.294Z,94.60
2018-12-23T05:43:59.280Z,95.12
2018-12-23T05:44:59.266Z,95.64
2018-12-23T05:45:59.296Z,95.74
2018-12-23T05:46:59.258Z,95.12
2018-12-23T05:47:59.411Z,95.32
2018-12-23T05:48:59.226Z,94.71
2018-12-23T05:49:59.213Z,95.64
2018-12-23T05:50:59.219Z,95.32
2018-12-23T05:51:59.195Z,95.12
2018-12-23T05:52:59.177Z,94.92
2018-12-23T05:53:59.228Z,94.81
2018-12-23T05:54:59.157Z,95.74
2018-12-23T05:55:59.148Z,94.92
2018-12-23T05:56:59.157Z,94.92
2018-12-23T05:57:59.134Z,95.22
2018-12-23T05:58:59.115Z,94.92
2018-12-23T05:59:59.172Z,95.32
2018-12-23T06:00:59.095Z,95.32
2018-12-23T06:01:59.081Z,95.53
2018-12-23T06:02:59.112Z,95.43
2018-12-23T06:03:59.081Z,95.12
2018-12-23T06:04:59.370Z,95.02
2018-12-23T06:05:59.150Z,95.22
2018-12-23T06:07:01.102Z,95.32
2018-12-23T06:07:59.015Z,95.02
2018-12-23T06:08:59.004Z,94.60
2018-12-23T06:09:59.017Z,94.77
2018-12-23T06:10:58.991Z,94.92
2018-12-23T06:11:59.054Z,95.07
2018-12-23T06:12:58.964Z,94.67
2018-12-23T06:13:58.958Z,94.87
2018-12-23T06:14:58.950Z,94.77
2018-12-23T06:15:58.929Z,94.87
2018-12-23T06:16:58.922Z,94.92
2018-12-23T06:17:58.989Z,95.02
2018-12-23T06:18:58.899Z,94.97
2018-12-23T06:19:58.903Z,94.97
2018-12-23T06:20:58.872Z,94.92
2018-12-23T06:21:58.864Z,95.07
2018-12-23T06:22:58.874Z,95.07
2018-12-23T06:23:58.903Z,95.12
2018-12-23T06:24:58.831Z,95.22
2018-12-23T06:25:58.817Z,95.18
2018-12-23T06:26:58.809Z,94.15
2018-12-23T06:27:58.799Z,94.25
2018-12-23T06:28:58.791Z,94.56
2018-12-23T06:29:58.907Z,94.46
2018-12-23T06:30:58.766Z,94.04
2018-12-23T06:31:58.753Z,94.04
2018-12-23T06:32:58.746Z,94.67
2018-12-23T06:33:58.730Z,94.56
2018-12-23T06:34:58.720Z,94.77
2018-12-23T06:35:58.854Z,94.77
2018-12-23T06:36:58.697Z,94.82
2018-12-23T06:37:58.688Z,94.82
2018-12-23T06:39:01.277Z,94.15
2018-12-23T06:39:58.665Z,94.00
2018-12-23T06:40:58.655Z,93.79
2018-12-23T06:41:58.702Z,93.38
2018-12-23T06:42:58.636Z,93.59
2018-12-23T06:43:58.625Z,93.59
2018-12-23T06:44:58.614Z,93.69
2018-12-23T06:45:58.613Z,93.69
2018-12-23T06:46:58.591Z,93.28
2018-12-23T06:47:58.666Z,93.38
2018-12-23T06:48:58.565Z,93.59
2018-12-23T06:49:58.553Z,93.79
2018-12-23T06:50:58.549Z,93.79
2018-12-23T06:51:58.549Z,93.69
2018-12-23T06:52:58.525Z,93.69
2018-12-23T06:53:58.622Z,93.79
2018-12-23T06:54:58.499Z,93.59
2018-12-23T06:55:58.490Z,93.28
2018-12-23T06:56:58.480Z,93.28
2018-12-23T06:57:58.470Z,93.38
2018-12-23T06:58:58.481Z,93.69
2018-12-23T06:59:58.514Z,93.49
2018-12-23T07:00:58.433Z,93.38
2018-12-23T07:01:58.421Z,93.28
2018-12-23T07:02:58.412Z,93.49
2018-12-23T07:03:58.433Z,93.28
2018-12-23T07:04:58.391Z,92.76
2018-12-23T07:05:58.468Z,92.72
2018-12-23T07:06:58.372Z,93.49
2018-12-23T07:07:58.359Z,93.28
2018-12-23T07:08:58.375Z,93.18
2018-12-23T07:09:58.355Z,93.49
2018-12-23T07:10:58.325Z,92.86
2018-12-23T07:11:58.417Z,92.86
2018-12-23T07:12:58.304Z,92.97
2018-12-23T07:13:58.290Z,93.18
2018-12-23T07:14:59.637Z,92.97
2018-12-23T07:15:58.270Z,92.76
2018-12-23T07:16:58.268Z,92.86
2018-12-23T07:17:58.374Z,92.97
2018-12-23T07:18:58.237Z,92.86
2018-12-23T07:19:58.230Z,92.97
2018-12-23T07:20:58.217Z,93.07
2018-12-23T07:21:58.216Z,92.97
2018-12-23T07:22:58.195Z,93.28
2018-12-23T07:23:58.258Z,93.28
2018-12-23T07:24:58.169Z,93.07
2018-12-23T07:25:58.186Z,93.07
2018-12-23T07:26:58.147Z,92.86
2018-12-23T07:27:58.147Z,93.07
2018-12-23T07:28:58.235Z,93.28
2018-12-23T07:29:58.181Z,92.86
2018-12-23T07:30:58.107Z,92.72
2018-12-23T07:31:58.693Z,92.86
2018-12-23T07:32:58.083Z,92.93
2018-12-23T07:33:58.073Z,93.38
2018-12-23T07:34:58.073Z,93.24
2018-12-23T07:35:58.102Z,93.13
2018-12-23T07:36:58.041Z,93.24
2018-12-23T07:37:58.029Z,93.03
2018-12-23T07:38:58.019Z,93.03
2018-12-23T07:39:58.010Z,93.13
2018-12-23T07:40:57.992Z,92.82
2018-12-23T07:41:58.072Z,92.61
2018-12-23T07:42:57.980Z,92.21
2018-12-23T07:43:57.973Z,92.00
2018-12-23T07:44:57.972Z,92.21
2018-12-23T07:45:57.940Z,92.10
2018-12-23T07:46:57.928Z,92.10
2018-12-23T07:47:57.999Z,92.00
2018-12-23T07:48:57.909Z,92.41
2018-12-23T07:49:57.908Z,92.06
2018-12-23T07:50:57.890Z,92.31
2018-12-23T07:51:57.879Z,92.27
2018-12-23T07:52:58.184Z,92.21
2018-12-23T07:53:57.973Z,92.06
2018-12-23T07:54:57.998Z,92.06
2018-12-23T07:55:59.367Z,92.37
2018-12-23T07:56:57.822Z,92.37
2018-12-23T07:57:57.853Z,91.75
2018-12-23T07:58:57.799Z,91.75
2018-12-23T07:59:57.969Z,91.44
2018-12-23T08:00:57.790Z,91.44
2018-12-23T08:01:57.765Z,91.24
2018-12-23T08:02:57.756Z,90.82
2018-12-23T08:03:57.743Z,91.24
2018-12-23T08:04:58.012Z,90.82
2018-12-23T08:05:57.812Z,90.99
2018-12-23T08:06:59.446Z,91.09
2018-12-23T08:07:57.699Z,90.41
2018-12-23T08:08:57.688Z,90.78
2018-12-23T08:09:57.680Z,89.95
2018-12-23T08:10:57.672Z,90.26
2018-12-23T08:11:57.717Z,90.47
2018-12-23T08:12:57.649Z,90.37
2018-12-23T08:13:57.926Z,90.57
2018-12-23T08:14:57.645Z,90.67
2018-12-23T08:15:57.615Z,91.09
2018-12-23T08:16:57.602Z,90.72
2018-12-23T08:17:57.671Z,90.78
2018-12-23T08:18:57.582Z,91.09
2018-12-23T08:19:57.568Z,90.51
2018-12-23T08:20:57.581Z,90.99
2018-12-23T08:21:57.546Z,91.34
2018-12-23T08:22:57.536Z,90.51
2018-12-23T08:23:57.808Z,90.92
2018-12-23T08:24:57.512Z,91.09
2018-12-23T08:25:57.505Z,90.88
2018-12-23T08:26:57.491Z,90.72
2018-12-23T08:27:57.509Z,90.57
2018-12-23T08:28:57.470Z,90.37
2018-12-23T08:29:57.535Z,90.99
2018-12-23T08:30:57.457Z,90.78
2018-12-23T08:31:57.489Z,90.37
2018-12-23T08:32:57.428Z,90.06
2018-12-23T08:33:57.436Z,90.26
2018-12-23T08:34:58.153Z,90.37
2018-12-23T08:35:57.475Z,90.37
2018-12-23T08:36:57.385Z,90.06
2018-12-23T08:37:57.373Z,90.47
2018-12-23T08:38:57.382Z,90.16
2018-12-23T08:39:57.351Z,90.16
2018-12-23T08:40:57.342Z,90.26
2018-12-23T08:41:57.414Z,89.85
2018-12-23T08:42:57.368Z,90.16
2018-12-23T08:43:57.327Z,89.95
2018-12-23T08:44:57.296Z,89.95
2018-12-23T08:45:57.293Z,89.85
2018-12-23T08:46:57.281Z,90.06
2018-12-23T08:47:57.381Z,90.06
2018-12-23T08:48:57.309Z,89.44
2018-12-23T08:49:57.265Z,89.34
2018-12-23T08:50:57.300Z,89.54
2018-12-23T08:51:57.228Z,89.34
2018-12-23T08:52:57.214Z,89.34
2018-12-23T08:53:57.290Z,89.13
2018-12-23T08:54:57.194Z,89.03
2018-12-23T08:55:57.702Z,89.54
2018-12-23T08:56:58.586Z,89.03
2018-12-23T08:57:57.158Z,88.78
2018-12-23T08:58:57.153Z,88.99
2018-12-23T08:59:57.219Z,89.03
2018-12-23T09:00:57.130Z,88.78
2018-12-23T09:01:57.114Z,88.37
2018-12-23T09:02:57.101Z,88.26
2018-12-23T09:03:57.184Z,88.57
2018-12-23T09:04:57.099Z,88.57
2018-12-23T09:05:57.241Z,88.47
2018-12-23T09:06:57.104Z,88.57
2018-12-23T09:07:57.084Z,88.57
2018-12-23T09:08:57.066Z,88.47
2018-12-23T09:09:57.221Z,87.96
2018-12-23T09:10:57.043Z,88.68
2018-12-23T09:11:57.088Z,88.37
2018-12-23T09:12:56.994Z,88.33
2018-12-23T09:13:56.988Z,87.81
2018-12-23T09:14:56.978Z,87.81
2018-12-23T09:15:56.967Z,87.81
2018-12-23T09:16:57.210Z,87.71
2018-12-23T09:17:57.055Z,88.12
2018-12-23T09:18:56.929Z,87.81
2018-12-23T09:19:56.934Z,87.71
2018-12-23T09:20:56.928Z,87.81
2018-12-23T09:21:56.900Z,87.81
2018-12-23T09:22:56.889Z,87.87
2018-12-23T09:23:56.957Z,87.98
2018-12-23T09:24:56.863Z,87.98
2018-12-23T09:25:56.863Z,87.77
2018-12-23T09:26:56.842Z,88.08
2018-12-23T09:27:56.831Z,88.08
2018-12-23T09:28:56.821Z,88.08
2018-12-23T09:29:56.934Z,88.23
2018-12-23T09:30:57.110Z,88.08
2018-12-23T09:31:56.812Z,87.98
2018-12-23T09:32:56.844Z,87.77
2018-12-23T09:33:56.813Z,87.46
2018-12-23T09:34:56.824Z,88.08
2018-12-23T09:35:57.302Z,87.57
2018-12-23T09:36:56.836Z,87.98
2018-12-23T09:38:01.446Z,86.85
2018-12-23T09:38:57.955Z,86.74
2018-12-23T09:39:56.703Z,86.29
2018-12-23T09:40:56.690Z,85.88
2018-12-23T09:41:56.979Z,86.19
2018-12-23T09:42:56.705Z,86.08
2018-12-23T09:43:56.662Z,86.08
2018-12-23T09:44:56.647Z,84.40
2018-12-23T09:45:56.640Z,84.20
2018-12-23T09:46:56.625Z,83.58
2018-12-23T09:47:56.673Z,83.89
2018-12-23T09:48:56.601Z,84.20
2018-12-23T09:49:56.591Z,84.40
2018-12-23T09:50:56.579Z,83.48
2018-12-23T09:51:56.569Z,83.33
2018-12-23T09:52:56.559Z,83.58
2018-12-23T09:53:56.620Z,83.54
2018-12-23T09:54:56.554Z,83.54
2018-12-23T09:55:56.545Z,83.03
2018-12-23T09:56:56.522Z,82.92
2018-12-23T09:57:56.503Z,82.62
2018-12-23T09:58:56.494Z,82.51
2018-12-23T09:59:56.543Z,82.27
2018-12-23T10:00:56.467Z,82.17
2018-12-23T10:01:56.460Z,82.10
2018-12-23T10:02:56.446Z,82.71
2018-12-23T10:03:56.476Z,82.86
2018-12-23T10:04:56.425Z,83.89
2018-12-23T10:05:56.510Z,84.30
2018-12-23T10:06:56.413Z,83.78
2018-12-23T10:07:56.391Z,84.30
2018-12-23T10:08:56.384Z,83.72
2018-12-23T10:09:56.371Z,84.34
2018-12-23T10:10:56.361Z,84.54
2018-12-23T10:11:56.466Z,84.64
2018-12-23T10:12:56.338Z,85.16
2018-12-23T10:13:56.331Z,85.61
2018-12-23T10:14:56.315Z,85.06
2018-12-23T10:15:56.303Z,85.71
2018-12-23T10:16:56.292Z,86.29
2018-12-23T10:17:56.391Z,85.78
2018-12-23T10:18:56.285Z,85.57
2018-12-23T10:19:56.260Z,85.26
2018-12-23T10:20:56.820Z,84.75
2018-12-23T10:21:56.237Z,85.02
2018-12-23T10:22:56.222Z,83.99
2018-12-23T10:23:56.307Z,84.30
2018-12-23T10:24:56.202Z,83.75
2018-12-23T10:25:56.194Z,83.33
2018-12-23T10:26:56.194Z,83.03
2018-12-23T10:27:56.178Z,83.44
2018-12-23T10:28:56.221Z,83.54
2018-12-23T10:29:56.218Z,83.54
2018-12-23T10:30:56.139Z,83.23
2018-12-23T10:31:56.140Z,83.64
2018-12-23T10:32:56.116Z,82.89
2018-12-23T10:33:56.103Z,83.19
2018-12-23T10:34:56.109Z,82.37
2018-12-23T10:35:56.166Z,82.37
2018-12-23T10:36:56.068Z,82.57
2018-12-23T10:37:56.062Z,82.47
2018-12-23T10:38:56.048Z,82.68
2018-12-23T10:39:56.276Z,82.47
2018-12-23T10:40:56.025Z,82.47
2018-12-23T10:41:56.081Z,82.78
2018-12-23T10:42:56.007Z,82.68
2018-12-23T10:43:56.021Z,82.78
2018-12-23T10:44:55.987Z,82.92
2018-12-23T10:45:55.970Z,82.92
2018-12-23T10:46:55.979Z,83.23
2018-12-23T10:47:56.021Z,83.33
2018-12-23T10:48:55.937Z,82.92
2018-12-23T10:49:55.935Z,83.13
2018-12-23T10:50:55.917Z,82.51
2018-12-23T10:51:55.903Z,82.92
2018-12-23T10:52:55.891Z,83.33
2018-12-23T10:53:55.954Z,83.17
2018-12-23T10:54:55.878Z,83.33
2018-12-23T10:55:55.857Z,83.03
2018-12-23T10:56:55.846Z,82.71
2018-12-23T10:57:55.835Z,82.47
2018-12-23T10:58:55.826Z,82.37
2018-12-23T10:59:55.928Z,81.55
2018-12-23T11:00:55.850Z,81.86
2018-12-23T11:01:56.121Z,81.45
2018-12-23T11:02:55.890Z,81.28
2018-12-23T11:03:55.772Z,81.59
2018-12-23T11:04:55.800Z,81.59
2018-12-23T11:05:55.827Z,81.79
2018-12-23T11:06:55.746Z,81.69
2018-12-23T11:07:55.728Z,81.28
2018-12-23T11:08:55.717Z,81.18
2018-12-23T11:10:01.983Z,80.97
2018-12-23T11:10:56.780Z,80.83
2018-12-23T11:11:55.696Z,81.07
2018-12-23T11:12:55.668Z,80.73
2018-12-23T11:13:55.659Z,79.60
2018-12-23T11:14:55.662Z,79.05
2018-12-23T11:15:55.637Z,79.56
2018-12-23T11:16:55.689Z,79.46
2018-12-23T11:17:55.672Z,78.50
2018-12-23T11:18:55.635Z,78.09
2018-12-23T11:19:55.602Z,77.13
2018-12-23T11:20:55.585Z,74.94
2018-12-23T11:21:55.568Z,75.35
2018-12-23T11:22:55.668Z,76.41
2018-12-23T11:23:55.563Z,76.31
2018-12-23T11:24:55.536Z,76.31
2018-12-23T11:25:55.573Z,76.62
2018-12-23T11:26:55.540Z,76.62
2018-12-23T11:27:55.518Z,76.31
2018-12-23T11:28:55.599Z,76.20
2018-12-23T11:29:55.478Z,76.68
2018-12-23T11:30:55.486Z,75.56
2018-12-23T11:31:55.462Z,75.24
2018-12-23T11:32:55.461Z,75.35
2018-12-23T11:33:55.439Z,75.15
2018-12-23T11:34:55.578Z,75.90
2018-12-23T11:35:55.422Z,76.10
2018-12-23T11:36:55.411Z,76.51
2018-12-23T11:37:55.394Z,76.92
2018-12-23T11:38:55.389Z,76.65
2018-12-23T11:39:55.367Z,76.62
2018-12-23T11:40:55.547Z,76.75
2018-12-23T11:41:55.354Z,77.00
2018-12-23T11:42:55.339Z,77.92
2018-12-23T11:43:55.334Z,78.12
2018-12-23T11:44:55.326Z,77.71
2018-12-23T11:45:55.307Z,78.33
2018-12-23T11:46:55.442Z,78.33
2018-12-23T11:47:55.283Z,78.53
2018-12-23T11:48:55.279Z,79.15
2018-12-23T11:49:55.293Z,78.85
2018-12-23T11:50:55.251Z,79.15
2018-12-23T11:51:55.316Z,79.56
2018-12-23T11:52:55.308Z,79.87
2018-12-23T11:53:55.225Z,79.56
2018-12-23T11:54:55.209Z,80.28
2018-12-23T11:55:55.204Z,80.38
2018-12-23T11:56:55.269Z,80.38
2018-12-23T11:57:55.173Z,80.32
2018-12-23T11:58:55.325Z,79.91
2018-12-23T11:59:55.234Z,80.79
2018-12-23T12:00:55.169Z,81.04
2018-12-23T12:01:55.132Z,80.83
2018-12-23T12:02:55.169Z,81.14
2018-12-23T12:03:55.190Z,80.93
2018-12-23T12:04:55.311Z,81.04
2018-12-23T12:05:55.094Z,80.93
2018-12-23T12:06:55.173Z,81.45
2018-12-23T12:08:03.173Z,81.90
2018-12-23T12:08:55.106Z,81.65
2018-12-23T12:09:55.087Z,81.65
2018-12-23T12:10:55.221Z,81.76
2018-12-23T12:11:55.081Z,81.86
2018-12-23T12:12:55.019Z,81.76
2018-12-23T12:13:55.040Z,81.65
2018-12-23T12:14:54.991Z,81.65
2018-12-23T12:15:54.976Z,82.17
2018-12-23T12:16:55.154Z,81.65
2018-12-23T12:17:55.002Z,81.76
2018-12-23T12:18:54.956Z,81.45
2018-12-23T12:19:54.932Z,81.55
2018-12-23T12:20:54.931Z,81.55
2018-12-23T12:21:55.153Z,81.62
2018-12-23T12:22:55.001Z,80.83
2018-12-23T12:23:54.887Z,81.14
2018-12-23T12:24:54.869Z,81.00
2018-12-23T12:25:54.878Z,80.90
2018-12-23T12:26:54.850Z,80.73
2018-12-23T12:27:54.839Z,80.93
2018-12-23T12:28:54.916Z,81.55
2018-12-23T12:29:54.822Z,81.55
2018-12-23T12:30:54.813Z,81.76
2018-12-23T12:31:54.792Z,81.55
2018-12-23T12:32:54.783Z,81.65
2018-12-23T12:33:54.774Z,81.65
2018-12-23T12:34:54.841Z,81.69
2018-12-23T12:35:54.751Z,82.06
2018-12-23T12:36:54.738Z,82.47
2018-12-23T12:37:54.728Z,82.57
2018-12-23T12:38:54.734Z,83.03
2018-12-23T12:39:55.111Z,82.92
2018-12-23T12:40:54.788Z,83.33
2018-12-23T12:41:54.691Z,83.68
2018-12-23T12:42:54.675Z,83.58
2018-12-23T12:43:54.663Z,83.89
2018-12-23T12:44:54.656Z,84.20
2018-12-23T12:46:00.466Z,84.13
2018-12-23T12:46:55.707Z,85.33
2018-12-23T12:47:54.618Z,85.47
2018-12-23T12:48:54.644Z,84.85
2018-12-23T12:49:54.596Z,85.78
2018-12-23T12:50:54.605Z,86.08
2018-12-23T12:51:54.574Z,85.88